Asteria — WDE5489 — position and weather

sailwx.info

Track history (hours):
 
Tides and Currents Weather Stations Pressure Air Temp Water Temp Dewpoint Dewpoint Depression Visibility Wind Speed Wind Dir Waves Ship Positions

Asteria

Owner: Boston HarborCruises, Boston, MA. More information available from US FCC via Universal Licensing System and Coast Guard Vessel Documentation Center.

Last reported at 2016-Sep-30 22:33 UTC. Time now 2016-Oct-01 18:54 UTC.
Position N 42°15' W 070°55'.

Length 33 m; draft 2 m.

Type: High speed craft. MMSI: 367367470.

Date/timePositionNaut miles runAvg speedWind from/ knotsBaromVisibWave heightAir tempDewpointWater temp
2016-Sep-30 22:33N 42°15' W 070°55'8 4.1
2016-Sep-30 20:33N 42°21' W 071°03'2 0.4
2016-Sep-30 14:33N 42°20' W 071°00'2 2.2
2016-Sep-30 13:33N 42°22' W 071°02'8 2.5
2016-Sep-30 10:31N 42°15' W 070°57'8 0.7
2016-Sep-29 23:34N 42°21' W 071°03'0 0.0
2016-Sep-29 21:33N 42°21' W 071°03'0 0.0
2016-Sep-29 20:33N 42°21' W 071°03'1 0.5
2016-Sep-29 19:32N 42°22' W 071°02'1 0.2
2016-Sep-29 16:33N 42°22' W 071°03'0 0.0
2016-Sep-29 15:17N 42°22' W 071°03'0 0.4
2016-Sep-29 14:33N 42°21' W 071°03'0 0.1
2016-Sep-29 13:33N 42°22' W 071°03'8 0.6
2016-Sep-29 00:05N 42°15' W 070°55'8 3.3
2016-Sep-28 21:33N 42°21' W 071°03'1 0.3
2016-Sep-28 19:33N 42°22' W 071°02'0 0.1
2016-Sep-28 16:33N 42°21' W 071°03'0 0.4
2016-Sep-28 15:33N 42°22' W 071°02'8 2.6
2016-Sep-28 12:28N 42°15' W 070°55'8 0.6
2016-Sep-27 23:33N 42°21' W 071°03'2 0.4
2016-Sep-27 19:33N 42°23' W 071°03'1 0.3
2016-Sep-27 14:33N 42°22' W 071°02'0 0.2
2016-Sep-27 13:33N 42°22' W 071°02'6 2.1
2016-Sep-27 10:33N 42°18' W 070°55'6 0.5
2016-Sep-26 20:34N 42°21' W 071°03'2 1.5
2016-Sep-26 19:33N 42°23' W 071°03'27 6.2
2016-Sep-26 15:11N 42°14' W 070°28'2716.3
2016-Sep-26 13:33N 42°22' W 071°03'4 2.2
2016-Sep-26 11:34N 42°18' W 070°59'24 1.3
2016-Sep-25 17:34N 42°24' W 070°27'2020.4
2016-Sep-25 16:34N 42°21' W 070°55'4 4.4
2016-Sep-25 15:34N 42°20' W 071°00'6 0.3
2016-Sep-24 17:23N 42°15' W 070°55'9 6.4
2016-Sep-24 16:04N 42°22' W 071°03'0 0.1
2016-Sep-24 14:33N 42°22' W 071°03'0 0.2
2016-Sep-24 12:33N 42°22' W 071°02'8 0.8
2016-Sep-24 02:34N 42°16' W 070°55'1615.5
2016-Sep-24 01:33N 42°31' W 070°53'1212.2
2016-Sep-24 00:33N 42°22' W 071°03'0 0.1
2016-Sep-23 19:33N 42°22' W 071°02'6 3.2
2016-Sep-23 17:34N 42°19' W 070°54'3029.5
2016-Sep-23 16:33N 42°11' W 070°16'1 0.7
2016-Sep-23 15:34N 42°10' W 070°17'3618.1
2016-Sep-23 13:34N 42°22' W 071°03'9 0.6
2016-Sep-23 00:03N 42°15' W 070°55'816.6
2016-Sep-22 23:33N 42°21' W 071°03'0 0.0
2016-Sep-22 20:34N 42°21' W 071°03'8 1.0
2016-Sep-22 12:33N 42°15' W 070°55'8 0.7
2016-Sep-22 00:33N 42°21' W 071°03'8 8.3
2016-Sep-21 23:33N 42°15' W 070°55'8 7.9
2016-Sep-21 22:34N 42°21' W 071°02'0 0.2
2016-Sep-21 19:34N 42°21' W 071°03'28 9.4
2016-Sep-21 16:33N 42°22' W 070°24'24 3.4
2016-Sep-21 09:33N 42°15' W 070°55'  
Track history (hours):
 
Tides and Currents Weather Stations Pressure Air Temp Water Temp Dewpoint Dewpoint Depression Visibility Wind Speed Wind Dir Waves Ship Positions

Asteria

Owner: Boston HarborCruises, Boston, MA. More information available from US FCC via Universal Licensing System and Coast Guard Vessel Documentation Center.

Last reported at 2016-Sep-30 22:33 UTC. Time now 2016-Oct-01 18:54 UTC.
Position N 42°15' W 070°55'.

Length 33 m; draft 2 m.

Type: High speed craft. MMSI: 367367470.

Date/timePositionNaut miles runAvg speedWind from/ knotsBaromVisibWave heightAir tempDewpointWater temp
2016-Sep-30 22:33N 42°15' W 070°55'8 4.1
2016-Sep-30 20:33N 42°21' W 071°03'2 0.4
2016-Sep-30 14:33N 42°20' W 071°00'2 2.2
2016-Sep-30 13:33N 42°22' W 071°02'8 2.5
2016-Sep-30 10:31N 42°15' W 070°57'8 0.7
2016-Sep-29 23:34N 42°21' W 071°03'0 0.0
2016-Sep-29 21:33N 42°21' W 071°03'0 0.0
2016-Sep-29 20:33N 42°21' W 071°03'1 0.5
2016-Sep-29 19:32N 42°22' W 071°02'1 0.2
2016-Sep-29 16:33N 42°22' W 071°03'0 0.0
2016-Sep-29 15:17N 42°22' W 071°03'0 0.4
2016-Sep-29 14:33N 42°21' W 071°03'0 0.1
2016-Sep-29 13:33N 42°22' W 071°03'8 0.6
2016-Sep-29 00:05N 42°15' W 070°55'8 3.3
2016-Sep-28 21:33N 42°21' W 071°03'1 0.3
2016-Sep-28 19:33N 42°22' W 071°02'0 0.1
2016-Sep-28 16:33N 42°21' W 071°03'0 0.4
2016-Sep-28 15:33N 42°22' W 071°02'8 2.6
2016-Sep-28 12:28N 42°15' W 070°55'8 0.6
2016-Sep-27 23:33N 42°21' W 071°03'2 0.4
2016-Sep-27 19:33N 42°23' W 071°03'1 0.3
2016-Sep-27 14:33N 42°22' W 071°02'0 0.2
2016-Sep-27 13:33N 42°22' W 071°02'6 2.1
2016-Sep-27 10:33N 42°18' W 070°55'6 0.5
2016-Sep-26 20:34N 42°21' W 071°03'2 1.5
2016-Sep-26 19:33N 42°23' W 071°03'27 6.2
2016-Sep-26 15:11N 42°14' W 070°28'2716.3
2016-Sep-26 13:33N 42°22' W 071°03'4 2.2
2016-Sep-26 11:34N 42°18' W 070°59'24 1.3
2016-Sep-25 17:34N 42°24' W 070°27'2020.4
2016-Sep-25 16:34N 42°21' W 070°55'4 4.4
2016-Sep-25 15:34N 42°20' W 071°00'6 0.3
2016-Sep-24 17:23N 42°15' W 070°55'9 6.4
2016-Sep-24 16:04N 42°22' W 071°03'0 0.1
2016-Sep-24 14:33N 42°22' W 071°03'0 0.2
2016-Sep-24 12:33N 42°22' W 071°02'8 0.8
2016-Sep-24 02:34N 42°16' W 070°55'1615.5
2016-Sep-24 01:33N 42°31' W 070°53'1212.2
2016-Sep-24 00:33N 42°22' W 071°03'0 0.1
2016-Sep-23 19:33N 42°22' W 071°02'6 3.2
2016-Sep-23 17:34N 42°19' W 070°54'3029.5
2016-Sep-23 16:33N 42°11' W 070°16'1 0.7
2016-Sep-23 15:34N 42°10' W 070°17'3618.1
2016-Sep-23 13:34N 42°22' W 071°03'9 0.6
2016-Sep-23 00:03N 42°15' W 070°55'816.6
2016-Sep-22 23:33N 42°21' W 071°03'0 0.0
2016-Sep-22 20:34N 42°21' W 071°03'8 1.0
2016-Sep-22 12:33N 42°15' W 070°55'8 0.7
2016-Sep-22 00:33N 42°21' W 071°03'8 8.3
2016-Sep-21 23:33N 42°15' W 070°55'8 7.9
2016-Sep-21 22:34N 42°21' W 071°02'0 0.2
2016-Sep-21 19:34N 42°21' W 071°03'28 9.4
2016-Sep-21 16:33N 42°22' W 070°24'24 3.4
2016-Sep-21 09:33N 42°15' W 070°55'  

Dump ship's entire track history